createdAt,value
2018-09-04T00:00:58.364Z,987.30
2018-09-04T00:03:26.200Z,940.40
2018-09-04T00:05:54.031Z,963.63
2018-09-04T00:08:21.871Z,949.67
2018-09-04T00:10:49.694Z,986.03
2018-09-04T00:13:17.526Z,992.63
2018-09-04T00:15:45.354Z,955.40
2018-09-04T00:18:13.186Z,970.83
2018-09-04T00:20:41.005Z,995.37
2018-09-04T00:23:08.834Z,993.10
2018-09-04T00:25:36.658Z,981.00
2018-09-04T00:28:04.537Z,996.20
2018-09-04T00:30:32.355Z,957.47
2018-09-04T00:33:00.190Z,975.90
2018-09-04T00:35:28.015Z,945.23
2018-09-04T00:37:55.851Z,974.80
2018-09-04T00:40:23.682Z,954.77
2018-09-04T00:42:51.523Z,930.77
2018-09-04T00:45:19.349Z,889.97
2018-09-04T00:47:47.187Z,945.70
2018-09-04T00:50:15.062Z,933.60
2018-09-04T00:52:42.894Z,895.63
2018-09-04T00:55:10.718Z,921.83
2018-09-04T00:57:38.550Z,939.90
2018-09-04T01:00:06.470Z,969.30
2018-09-04T01:02:34.397Z,995.33
2018-09-04T01:05:02.229Z,990.77
2018-09-04T01:07:30.071Z,996.37
2018-09-04T01:09:57.892Z,968.10
2018-09-04T01:12:25.748Z,982.50
2018-09-04T01:14:54.238Z,996.53
2018-09-04T01:17:22.067Z,995.93
2018-09-04T01:19:49.924Z,992.53
2018-09-04T01:22:17.742Z,982.27
2018-09-04T01:24:45.570Z,966.60
2018-09-04T01:27:13.390Z,986.13
2018-09-04T01:29:41.223Z,999.90
2018-09-04T01:32:09.049Z,999.90
2018-09-04T01:34:36.898Z,995.20
2018-09-04T01:37:04.736Z,981.10
2018-09-04T01:39:32.561Z,999.90
2018-09-04T01:42:00.403Z,996.60
2018-09-04T01:44:28.230Z,999.90
2018-09-04T01:46:56.073Z,999.90
2018-09-04T01:49:23.909Z,999.90
2018-09-04T01:51:51.741Z,972.80
2018-09-04T01:54:19.565Z,996.07
2018-09-04T01:56:47.393Z,991.80
2018-09-04T01:59:15.224Z,991.73
2018-09-04T02:01:43.052Z,973.97
2018-09-04T02:04:10.888Z,999.80
2018-09-04T02:06:38.729Z,999.90
2018-09-04T02:09:06.599Z,995.53
2018-09-04T02:11:34.416Z,974.10
2018-09-04T02:14:02.363Z,994.67
2018-09-04T02:16:30.230Z,970.77
2018-09-04T02:18:58.073Z,988.97
2018-09-04T02:21:25.941Z,999.90
2018-09-04T02:23:53.768Z,999.90
2018-09-04T02:26:21.601Z,999.90
2018-09-04T02:28:49.429Z,999.90
2018-09-04T02:31:17.311Z,999.90
2018-09-04T02:33:45.137Z,999.90
2018-09-04T02:36:12.966Z,999.90
2018-09-04T02:38:40.802Z,999.90
2018-09-04T02:41:08.854Z,999.90
2018-09-04T02:46:21.373Z,999.90
2018-09-04T02:48:49.217Z,999.90
2018-09-04T02:51:17.049Z,999.90
2018-09-04T02:53:44.898Z,999.90
2018-09-04T02:56:12.732Z,999.90
2018-09-04T02:58:40.577Z,999.90
2018-09-04T03:01:08.405Z,999.90
2018-09-04T03:03:36.274Z,999.90
2018-09-04T03:06:04.428Z,999.90
2018-09-04T03:08:32.473Z,999.90
2018-09-04T03:11:00.305Z,999.90
2018-09-04T03:13:28.989Z,999.90
2018-09-04T03:15:56.801Z,999.90
2018-09-04T03:18:24.633Z,999.90
2018-09-04T03:20:52.482Z,999.90
2018-09-04T03:23:20.313Z,999.90
2018-09-04T03:25:48.138Z,999.90
2018-09-04T03:28:15.976Z,999.90
2018-09-04T03:30:43.869Z,999.90
2018-09-04T03:33:11.731Z,999.90
2018-09-04T03:35:46.041Z,999.90
2018-09-04T03:38:13.895Z,999.90
2018-09-04T03:40:41.798Z,999.90
2018-09-04T03:43:09.781Z,999.90
2018-09-04T03:45:37.610Z,999.90
2018-09-04T03:48:05.742Z,999.90
2018-09-04T03:50:33.573Z,999.90
2018-09-04T03:53:01.405Z,999.90
2018-09-04T03:55:29.241Z,999.90
2018-09-04T03:57:57.073Z,999.90
2018-09-04T04:00:24.942Z,999.90
2018-09-04T04:02:52.768Z,999.90
2018-09-04T04:05:20.618Z,999.90
2018-09-04T04:07:48.449Z,999.90
2018-09-04T04:10:16.393Z,999.90
2018-09-04T04:12:44.224Z,999.90
2018-09-04T04:15:12.070Z,999.90
2018-09-04T04:17:39.954Z,999.90
2018-09-04T04:20:07.806Z,999.90
2018-09-04T04:22:35.633Z,999.90
2018-09-04T04:25:03.488Z,999.90
2018-09-04T04:27:31.318Z,999.90
2018-09-04T04:29:59.160Z,999.90
2018-09-04T04:32:27.214Z,999.90
2018-09-04T04:34:55.310Z,999.90
2018-09-04T04:37:23.147Z,999.90
2018-09-04T04:39:51.004Z,999.90
2018-09-04T04:42:18.833Z,999.90
2018-09-04T04:44:46.680Z,999.90
2018-09-04T04:47:14.514Z,999.90
2018-09-04T04:49:42.349Z,999.90
2018-09-04T04:52:10.184Z,999.90
2018-09-04T04:54:38.033Z,999.90
2018-09-04T04:57:05.869Z,999.90
2018-09-04T04:59:33.706Z,999.90
2018-09-04T05:02:01.641Z,999.90
2018-09-04T05:04:29.480Z,999.90
2018-09-04T05:06:57.321Z,999.90
2018-09-04T05:09:25.173Z,999.90
2018-09-04T05:11:53.029Z,999.90
2018-09-04T05:14:20.889Z,999.90
2018-09-04T05:16:48.721Z,999.90
2018-09-04T05:19:16.569Z,999.90
2018-09-04T05:21:44.401Z,999.90
2018-09-04T05:24:12.243Z,999.90
2018-09-04T05:26:40.081Z,999.90
2018-09-04T05:29:07.919Z,999.90
2018-09-04T05:31:40.197Z,999.90
2018-09-04T05:34:08.037Z,999.90
2018-09-04T05:36:35.878Z,999.90
2018-09-04T05:39:04.810Z,999.90
2018-09-04T05:41:32.646Z,999.90
2018-09-04T05:44:00.986Z,999.90
2018-09-04T05:46:46.438Z,999.90
2018-09-04T05:49:16.670Z,999.90
2018-09-04T05:51:44.506Z,999.90
2018-09-04T05:54:12.333Z,999.90
2018-09-04T05:56:40.203Z,999.90
2018-09-04T05:59:08.034Z,999.90
2018-09-04T06:01:35.891Z,999.90
2018-09-04T06:04:03.723Z,999.90
2018-09-04T06:06:31.562Z,999.90
2018-09-04T06:08:59.558Z,999.90
2018-09-04T06:11:27.420Z,999.90
2018-09-04T06:13:55.253Z,999.90
2018-09-04T06:16:23.093Z,999.90
2018-09-04T06:18:50.949Z,999.90
2018-09-04T06:21:18.788Z,999.90
2018-09-04T06:23:46.621Z,999.90
2018-09-04T06:26:14.461Z,999.90
2018-09-04T06:28:42.294Z,999.90
2018-09-04T06:31:10.126Z,999.90
2018-09-04T06:33:37.969Z,999.90
2018-09-04T06:36:06.069Z,999.90
2018-09-04T06:38:33.911Z,999.90
2018-09-04T06:41:01.746Z,999.90
2018-09-04T06:43:29.573Z,999.90
2018-09-04T06:45:57.410Z,999.90
2018-09-04T06:48:31.966Z,999.90
2018-09-04T06:50:59.801Z,999.90
2018-09-04T06:53:27.634Z,999.90
2018-09-04T06:55:55.477Z,999.90
2018-09-04T06:58:23.306Z,999.90
2018-09-04T07:00:51.154Z,999.90
2018-09-04T07:03:18.989Z,999.90
2018-09-04T07:05:46.826Z,999.90
2018-09-04T07:08:14.652Z,999.90
2018-09-04T07:10:42.496Z,999.90
2018-09-04T07:13:10.325Z,999.90
2018-09-04T07:15:44.701Z,999.90
2018-09-04T07:18:12.561Z,999.90
2018-09-04T07:20:40.417Z,999.90
2018-09-04T07:23:08.250Z,999.90
2018-09-04T07:25:36.085Z,999.90
2018-09-04T07:28:03.929Z,999.90
2018-09-04T07:30:31.770Z,999.90
2018-09-04T07:32:59.605Z,999.90
2018-09-04T07:35:27.445Z,999.90
2018-09-04T07:37:55.278Z,999.90
2018-09-04T07:40:23.138Z,999.90
2018-09-04T07:42:50.962Z,999.90
2018-09-04T07:45:18.795Z,997.73
2018-09-04T07:47:46.633Z,999.90
2018-09-04T07:50:14.459Z,999.90
2018-09-04T07:52:42.322Z,999.90
2018-09-04T07:55:10.156Z,999.90
2018-09-04T07:57:38.026Z,999.90
2018-09-04T08:00:06.325Z,999.90
2018-09-04T08:02:34.766Z,999.90
2018-09-04T08:05:02.853Z,999.90
2018-09-04T08:07:30.693Z,999.90
2018-09-04T08:09:58.572Z,999.90
2018-09-04T08:12:26.377Z,999.90
2018-09-04T08:14:54.210Z,999.90
2018-09-04T08:17:22.049Z,999.90
2018-09-04T08:20:53.494Z,999.90
2018-09-04T08:23:21.250Z,999.90
2018-09-04T08:25:49.077Z,999.90
2018-09-04T08:28:16.921Z,999.90
2018-09-04T08:30:44.753Z,999.90
2018-09-04T08:33:12.644Z,999.90
2018-09-04T08:35:40.517Z,999.90
2018-09-04T08:38:08.366Z,999.90
2018-09-04T08:40:36.199Z,999.90
2018-09-04T08:43:04.033Z,999.90
2018-09-04T08:45:32.418Z,999.90
2018-09-04T08:48:01.545Z,999.90
2018-09-04T08:50:30.920Z,999.90
2018-09-04T08:52:58.713Z,999.90
2018-09-04T08:55:26.587Z,999.90
2018-09-04T08:57:54.392Z,999.90
2018-09-04T09:00:22.230Z,999.90
2018-09-04T09:02:50.088Z,999.90
2018-09-04T09:05:17.941Z,999.90
2018-09-04T09:07:45.782Z,999.90
2018-09-04T09:10:13.618Z,999.90
2018-09-04T09:12:41.462Z,999.90
2018-09-04T09:15:09.293Z,999.90
2018-09-04T09:17:37.160Z,999.90
2018-09-04T09:20:04.997Z,999.90
2018-09-04T09:22:32.833Z,999.90
2018-09-04T09:25:00.673Z,999.90
2018-09-04T09:27:28.513Z,999.90
2018-09-04T09:29:56.350Z,999.90
2018-09-04T09:32:24.252Z,999.90
2018-09-04T09:34:52.086Z,999.90
2018-09-04T09:37:19.933Z,999.90
2018-09-04T09:39:47.770Z,999.90
2018-09-04T09:42:15.615Z,999.90
2018-09-04T09:44:44.438Z,999.90
2018-09-04T09:47:12.306Z,999.90
2018-09-04T09:49:40.369Z,999.90
2018-09-04T09:52:08.204Z,999.90
2018-09-04T09:54:36.252Z,999.90
2018-09-04T09:57:04.149Z,999.90
2018-09-04T09:59:32.035Z,999.90
2018-09-04T10:02:05.489Z,999.90
2018-09-04T10:04:33.325Z,999.90
2018-09-04T10:07:01.186Z,999.90
2018-09-04T10:09:29.022Z,999.90
2018-09-04T10:11:56.857Z,999.90
2018-09-04T10:14:24.694Z,999.90
2018-09-04T10:16:52.525Z,999.90
2018-09-04T10:19:20.375Z,999.90
2018-09-04T10:21:48.213Z,999.90
2018-09-04T10:24:16.058Z,999.90
2018-09-04T10:26:43.893Z,999.90
2018-09-04T10:29:11.733Z,999.90
2018-09-04T10:31:39.561Z,999.90
2018-09-04T10:34:07.405Z,999.90
2018-09-04T10:36:35.239Z,999.90
2018-09-04T10:40:08.478Z,999.90
2018-09-04T10:42:36.313Z,990.40
2018-09-04T10:45:04.149Z,966.37
2018-09-04T10:47:32.009Z,999.80
2018-09-04T10:49:59.844Z,963.07
2018-09-04T10:52:27.676Z,969.40
2018-09-04T10:54:55.521Z,905.13
2018-09-04T10:57:23.350Z,965.70
2018-09-04T10:59:51.189Z,958.43
2018-09-04T11:02:19.797Z,939.27
2018-09-04T11:04:48.502Z,846.27
2018-09-04T11:07:16.329Z,832.30
2018-09-04T11:09:44.321Z,910.37
2018-09-04T11:12:12.001Z,944.53
2018-09-04T11:14:39.866Z,857.37
2018-09-04T11:17:07.693Z,999.90
2018-09-04T11:19:35.542Z,927.80
2018-09-04T11:22:03.378Z,888.43
2018-09-04T11:24:31.209Z,702.03
2018-09-04T11:26:59.041Z,772.67
2018-09-04T11:29:26.882Z,672.40
2018-09-04T11:31:54.722Z,767.83
2018-09-04T11:34:22.565Z,792.80
2018-09-04T11:36:50.390Z,643.20
2018-09-04T11:39:18.226Z,609.77
2018-09-04T11:41:46.058Z,743.20
2018-09-04T11:44:13.897Z,438.20
2018-09-04T11:46:41.721Z,642.10
2018-09-04T11:49:09.590Z,195.57
2018-09-04T11:51:37.409Z,132.67
2018-09-04T11:54:05.482Z,590.23
2018-09-04T11:56:37.667Z,383.03
2018-09-04T11:59:05.503Z,348.93
2018-09-04T12:01:33.326Z,287.33
2018-09-04T12:04:01.155Z,121.50
2018-09-04T12:06:29.022Z,72.77
2018-09-04T12:08:56.806Z,46.43
2018-09-04T12:11:24.633Z,38.57
2018-09-04T12:13:52.464Z,14.47
2018-09-04T12:16:20.293Z,26.50
2018-09-04T12:18:48.133Z,13.43
2018-09-04T12:21:15.964Z,13.77
2018-09-04T12:23:43.820Z,7.10
2018-09-04T12:26:11.920Z,13.40
2018-09-04T12:28:39.845Z,21.60
2018-09-04T12:31:08.280Z,18.63
2018-09-04T12:33:36.100Z,36.00
2018-09-04T12:36:03.924Z,20.73
2018-09-04T12:38:37.317Z,12.27
2018-09-04T12:41:11.035Z,5.60
2018-09-04T12:43:38.891Z,5.47
2018-09-04T12:46:06.730Z,11.53
2018-09-04T12:48:34.651Z,44.70
2018-09-04T12:51:02.904Z,213.33
2018-09-04T12:53:31.698Z,17.07
2018-09-04T12:55:59.533Z,9.10
2018-09-04T12:58:27.357Z,5.67
2018-09-04T13:00:55.998Z,9.03
2018-09-04T13:03:26.021Z,5.33
2018-09-04T13:05:53.853Z,5.40
2018-09-04T13:08:23.042Z,4.57
2018-09-04T13:10:50.865Z,4.30
2018-09-04T13:13:18.685Z,4.60
2018-09-04T13:15:49.388Z,5.17
2018-09-04T13:18:17.207Z,5.20
2018-09-04T13:20:45.045Z,5.00
2018-09-04T13:23:12.870Z,8.77
2018-09-04T13:25:40.693Z,18.40
2018-09-04T13:28:08.634Z,6.87
2018-09-04T13:30:36.765Z,35.73
2018-09-04T13:33:04.580Z,8.07
2018-09-04T13:35:32.414Z,5.50
2018-09-04T13:38:00.236Z,4.17
2018-09-04T13:40:28.065Z,4.57
2018-09-04T13:42:55.890Z,5.00
2018-09-04T13:45:23.722Z,5.10
2018-09-04T13:47:51.533Z,5.60
2018-09-04T13:50:19.365Z,6.00
2018-09-04T13:52:47.193Z,48.40
2018-09-04T13:55:15.038Z,135.87
2018-09-04T13:57:42.861Z,210.17
2018-09-04T14:00:12.050Z,89.20
2018-09-04T14:02:39.869Z,88.17
2018-09-04T14:05:07.710Z,16.17
2018-09-04T14:07:35.529Z,19.83
2018-09-04T14:10:03.370Z,42.93
2018-09-04T14:12:31.186Z,28.03
2018-09-04T14:14:59.022Z,39.50
2018-09-04T14:17:26.842Z,16.23
2018-09-04T14:19:54.690Z,15.60
2018-09-04T14:22:22.510Z,29.93
2018-09-04T14:24:50.430Z,20.23
2018-09-04T14:27:18.218Z,28.90
2018-09-04T14:29:53.779Z,273.30
2018-09-04T14:32:13.877Z,881.77
2018-09-04T14:34:41.705Z,793.90
2018-09-04T14:37:09.713Z,832.03
2018-09-04T14:39:37.471Z,569.60
2018-09-04T14:42:05.384Z,415.73
2018-09-04T14:44:33.181Z,708.67
2018-09-04T14:47:01.022Z,483.23
2018-09-04T14:49:28.841Z,893.13
2018-09-04T14:51:56.690Z,754.43
2018-09-04T14:54:24.520Z,796.53
2018-09-04T14:56:52.425Z,907.23
2018-09-04T14:59:20.226Z,678.27
2018-09-04T15:01:48.065Z,861.17
2018-09-04T15:04:15.890Z,838.33
2018-09-04T15:06:43.741Z,871.57
2018-09-04T15:09:11.565Z,866.40
2018-09-04T15:11:39.405Z,855.33
2018-09-04T15:14:07.241Z,999.90
2018-09-04T15:16:36.093Z,999.90
2018-09-04T15:19:03.997Z,995.33
2018-09-04T15:21:31.784Z,999.90
2018-09-04T15:23:59.621Z,999.90
2018-09-04T15:26:27.457Z,999.90
2018-09-04T15:28:55.293Z,999.90
2018-09-04T15:31:23.141Z,999.90
2018-09-04T15:33:50.964Z,999.90
2018-09-04T15:36:18.805Z,999.90
2018-09-04T15:38:46.637Z,999.90
2018-09-04T15:41:14.536Z,999.90
2018-09-04T15:43:42.363Z,999.90
2018-09-04T15:46:10.205Z,999.90
2018-09-04T15:48:38.037Z,999.90
2018-09-04T15:51:06.022Z,999.90
2018-09-04T15:53:33.933Z,999.90
2018-09-04T15:56:01.773Z,999.90
2018-09-04T15:58:29.610Z,999.90
2018-09-04T16:00:57.473Z,999.90
2018-09-04T16:03:25.301Z,999.90
2018-09-04T16:05:53.142Z,999.90
2018-09-04T16:08:20.978Z,999.90
2018-09-04T16:10:48.809Z,999.90
2018-09-04T16:13:16.642Z,999.90
2018-09-04T16:15:44.476Z,999.90
2018-09-04T16:18:12.313Z,999.90
2018-09-04T16:20:40.154Z,999.90
2018-09-04T16:23:07.986Z,999.90
2018-09-04T16:25:35.813Z,999.90
2018-09-04T16:28:03.717Z,999.90
2018-09-04T16:30:31.545Z,999.90
2018-09-04T16:32:59.389Z,999.90
2018-09-04T16:35:27.270Z,999.90
2018-09-04T16:37:55.069Z,999.90
2018-09-04T16:40:22.902Z,999.90
2018-09-04T16:42:50.746Z,999.90
2018-09-04T16:45:18.577Z,999.90
2018-09-04T16:47:46.417Z,999.90
2018-09-04T16:50:14.249Z,999.90
2018-09-04T16:52:42.089Z,999.90
2018-09-04T16:55:09.930Z,999.90
2018-09-04T16:57:37.773Z,999.90
2018-09-04T17:00:05.873Z,999.90
2018-09-04T17:02:33.717Z,999.90
2018-09-04T17:05:01.574Z,999.90
2018-09-04T17:07:29.402Z,999.90
2018-09-04T17:09:57.233Z,999.90
2018-09-04T17:12:25.116Z,999.90
2018-09-04T17:14:52.953Z,999.90
2018-09-04T17:17:20.787Z,999.90
2018-09-04T17:19:48.633Z,999.90
2018-09-04T17:22:16.472Z,999.90
2018-09-04T17:24:44.316Z,999.90
2018-09-04T17:27:12.149Z,999.90
2018-09-04T17:29:39.986Z,999.90
2018-09-04T17:32:07.842Z,999.90
2018-09-04T17:34:35.673Z,999.90
2018-09-04T17:37:03.521Z,999.90
2018-09-04T17:39:31.349Z,999.90
2018-09-04T17:41:59.213Z,999.90
2018-09-04T17:44:27.048Z,999.90
2018-09-04T17:46:54.882Z,999.90
2018-09-04T17:49:22.753Z,999.90
2018-09-04T17:51:50.590Z,999.90
2018-09-04T17:54:18.441Z,999.90
2018-09-04T17:56:46.305Z,999.90
2018-09-04T17:59:14.141Z,999.90
2018-09-04T18:01:41.973Z,999.90
2018-09-04T18:04:09.837Z,999.90
2018-09-04T18:06:37.701Z,999.90
2018-09-04T18:09:06.270Z,999.90
2018-09-04T18:11:34.098Z,999.90
2018-09-04T18:14:01.933Z,999.90
2018-09-04T18:16:29.765Z,999.90
2018-09-04T18:18:57.620Z,999.90
2018-09-04T18:21:25.460Z,999.90
2018-09-04T18:23:53.302Z,999.90
2018-09-04T18:26:21.133Z,999.90
2018-09-04T18:28:48.969Z,999.90
2018-09-04T18:31:16.801Z,999.90
2018-09-04T18:33:44.717Z,999.90
2018-09-04T18:36:12.620Z,999.90
2018-09-04T18:38:40.422Z,999.90
2018-09-04T18:41:08.748Z,999.90
2018-09-04T18:43:36.673Z,999.90
2018-09-04T18:46:04.505Z,999.90
2018-09-04T18:48:32.364Z,999.90
2018-09-04T18:51:00.198Z,999.90
2018-09-04T18:53:28.040Z,999.90
2018-09-04T18:55:55.903Z,999.90
2018-09-04T18:58:23.801Z,999.90
2018-09-04T19:00:51.630Z,999.90
2018-09-04T19:03:19.940Z,999.90
2018-09-04T19:05:47.793Z,999.90
2018-09-04T19:08:15.704Z,999.90
2018-09-04T19:10:43.550Z,999.90
2018-09-04T19:13:11.617Z,999.90
2018-09-04T19:15:39.486Z,995.20
2018-09-04T19:18:07.325Z,993.07
2018-09-04T19:20:35.282Z,997.47
2018-09-04T19:23:03.126Z,999.83
2018-09-04T19:25:30.964Z,999.90
2018-09-04T19:27:58.793Z,987.03
2018-09-04T19:30:26.640Z,997.17
2018-09-04T19:32:54.474Z,995.23
2018-09-04T19:35:22.322Z,908.97
2018-09-04T19:37:50.378Z,987.17
2018-09-04T19:40:18.323Z,982.27
2018-09-04T19:42:46.289Z,991.13
2018-09-04T19:45:14.222Z,992.30
2018-09-04T19:47:42.061Z,993.87
2018-09-04T19:50:11.040Z,996.33
2018-09-04T19:52:39.105Z,972.70
2018-09-04T19:55:07.456Z,994.17
2018-09-04T19:57:35.295Z,988.60
2018-09-04T20:00:03.290Z,908.53
2018-09-04T20:02:31.129Z,862.20
2018-09-04T20:04:58.965Z,877.53
2018-09-04T20:07:33.274Z,954.40
2018-09-04T20:11:30.464Z,931.13
2018-09-04T20:13:58.316Z,993.20
2018-09-04T20:16:26.237Z,986.43
2018-09-04T20:18:54.089Z,926.27
2018-09-04T20:21:21.929Z,920.30
2018-09-04T20:23:49.761Z,800.30
2018-09-04T20:26:17.597Z,884.00
2018-09-04T20:28:45.774Z,810.23
2018-09-04T20:31:13.601Z,797.73
2018-09-04T20:33:41.441Z,768.30
2018-09-04T20:36:09.302Z,762.43
2018-09-04T20:38:37.327Z,777.93
2018-09-04T20:41:05.161Z,834.63
2018-09-04T20:43:32.987Z,800.83
2018-09-04T20:46:00.829Z,796.80
2018-09-04T20:48:28.665Z,875.17
2018-09-04T20:50:56.505Z,898.30
2018-09-04T20:53:24.342Z,882.63
2018-09-04T20:55:53.310Z,907.40
2018-09-04T20:58:26.848Z,911.23
2018-09-04T21:01:00.500Z,943.17
2018-09-04T21:03:34.186Z,942.80
2018-09-04T21:06:07.837Z,852.13
2018-09-04T21:08:41.164Z,919.43
2018-09-04T21:11:09.025Z,938.80
2018-09-04T21:13:36.957Z,923.47
2018-09-04T21:16:04.820Z,915.00
2018-09-04T21:18:32.789Z,859.40
2018-09-04T21:21:00.652Z,874.93
2018-09-04T21:23:28.515Z,876.63
2018-09-04T21:25:56.372Z,777.77
2018-09-04T21:28:24.216Z,708.87
2018-09-04T21:30:52.083Z,858.70
2018-09-04T21:33:20.043Z,856.40
2018-09-04T21:35:47.896Z,786.00
2018-09-04T21:38:16.069Z,822.57
2018-09-04T21:40:43.932Z,816.03
2018-09-04T21:43:11.790Z,906.00
2018-09-04T21:45:39.649Z,829.80
2018-09-04T21:48:07.505Z,853.30
2018-09-04T21:50:35.371Z,920.43
2018-09-04T21:53:03.221Z,876.23
2018-09-04T21:55:31.096Z,854.70
2018-09-04T21:57:58.944Z,917.67
2018-09-04T22:00:27.763Z,926.20
2018-09-04T22:02:56.969Z,966.40
2018-09-04T22:05:25.594Z,996.13
2018-09-04T22:07:53.790Z,909.43
2018-09-04T22:10:21.655Z,992.03
2018-09-04T22:12:49.517Z,969.13
2018-09-04T22:15:17.365Z,999.90
2018-09-04T22:17:45.221Z,999.90
2018-09-04T22:20:13.085Z,999.90
2018-09-04T22:22:40.958Z,999.90
2018-09-04T22:25:08.805Z,999.90
2018-09-04T22:27:36.669Z,985.77
2018-09-04T22:30:04.524Z,983.10
2018-09-04T22:32:32.385Z,971.57
2018-09-04T22:35:00.243Z,948.47
2018-09-04T22:37:28.111Z,874.77
2018-09-04T22:39:55.948Z,846.90
2018-09-04T22:42:23.816Z,866.03
2018-09-04T22:44:51.661Z,862.70
2018-09-04T22:47:19.520Z,810.37
2018-09-04T22:49:52.837Z,807.70
2018-09-04T22:52:25.046Z,797.77
2018-09-04T22:54:56.728Z,894.83
2018-09-04T22:57:24.628Z,866.97
2018-09-04T22:59:52.487Z,787.53
2018-09-04T23:02:20.376Z,831.00
2018-09-04T23:04:48.225Z,878.70
2018-09-04T23:07:16.332Z,825.57
2018-09-04T23:09:44.186Z,833.03
2018-09-04T23:12:12.397Z,833.50
2018-09-04T23:14:40.257Z,794.07
2018-09-04T23:17:08.118Z,862.10
2018-09-04T23:19:36.272Z,819.07
2018-09-04T23:22:04.135Z,821.93
2018-09-04T23:24:31.987Z,868.43
2018-09-04T23:26:59.911Z,915.47
2018-09-04T23:29:27.770Z,930.93
2018-09-04T23:31:55.625Z,908.53
2018-09-04T23:34:23.487Z,909.20
2018-09-04T23:36:51.333Z,867.43
2018-09-04T23:39:19.241Z,871.63
2018-09-04T23:41:47.121Z,901.77
2018-09-04T23:44:14.984Z,933.20
2018-09-04T23:46:42.832Z,924.87
2018-09-04T23:49:11.238Z,947.87
2018-09-04T23:51:39.093Z,898.37
2018-09-04T23:54:06.957Z,932.37
2018-09-04T23:56:34.797Z,972.90
2018-09-04T23:59:02.658Z,935.10
